sensor_id;sensor_type;location;lat;lon;timestamp;pressure;altitude;pressure_sealevel;temperature;humidity
24486;BME280;13449;49.374;8.584;2022-10-31T00:01:00;100993.47;;;11.12;100.00
24486;BME280;13449;49.374;8.584;2022-10-31T00:03:29;100989.00;;;11.11;100.00
24486;BME280;13449;49.374;8.584;2022-10-31T00:05:55;100991.25;;;11.08;100.00
24486;BME280;13449;49.374;8.584;2022-10-31T00:08:22;100985.78;;;11.08;100.00
24486;BME280;13449;49.374;8.584;2022-10-31T00:10:51;100993.13;;;11.07;100.00
24486;BME280;13449;49.374;8.584;2022-10-31T00:13:17;100990.91;;;11.03;100.00
24486;BME280;13449;49.374;8.584;2022-10-31T00:15:44;100985.66;;;11.01;100.00
24486;BME280;13449;49.374;8.584;2022-10-31T00:18:11;100992.06;;;11.17;100.00
24486;BME280;13449;49.374;8.584;2022-10-31T00:20:38;100984.09;;;11.07;100.00
24486;BME280;13449;49.374;8.584;2022-10-31T00:23:06;100986.69;;;11.00;100.00
24486;BME280;13449;49.374;8.584;2022-10-31T00:25:35;100985.50;;;10.95;100.00
24486;BME280;13449;49.374;8.584;2022-10-31T00:28:03;100987.88;;;10.98;100.00
24486;BME280;13449;49.374;8.584;2022-10-31T00:30:32;100992.84;;;10.94;100.00
24486;BME280;13449;49.374;8.584;2022-10-31T00:32:59;100987.19;;;10.96;100.00
24486;BME280;13449;49.374;8.584;2022-10-31T00:35:26;100997.09;;;10.97;100.00
24486;BME280;13449;49.374;8.584;2022-10-31T00:37:52;100992.69;;;10.88;100.00
24486;BME280;13449;49.374;8.584;2022-10-31T00:40:19;100993.38;;;10.90;100.00
24486;BME280;13449;49.374;8.584;2022-10-31T00:42:45;100989.66;;;10.83;100.00
24486;BME280;13449;49.374;8.584;2022-10-31T00:45:12;100999.38;;;10.77;100.00
24486;BME280;13449;49.374;8.584;2022-10-31T00:47:43;101002.28;;;10.76;100.00
24486;BME280;13449;49.374;8.584;2022-10-31T00:50:10;100992.41;;;10.66;100.00
24486;BME280;13449;49.374;8.584;2022-10-31T00:52:36;100995.28;;;10.65;100.00
24486;BME280;13449;49.374;8.584;2022-10-31T00:55:03;100996.50;;;10.62;100.00
24486;BME280;13449;49.374;8.584;2022-10-31T00:57:29;100996.88;;;10.59;100.00
24486;BME280;13449;49.374;8.584;2022-10-31T00:59:56;100998.72;;;10.59;100.00
24486;BME280;13449;49.374;8.584;2022-10-31T01:02:22;101000.78;;;10.57;100.00
24486;BME280;13449;49.374;8.584;2022-10-31T01:04:54;101005.75;;;10.53;100.00
24486;BME280;13449;49.374;8.584;2022-10-31T01:07:20;101014.75;;;10.54;100.00
24486;BME280;13449;49.374;8.584;2022-10-31T01:09:47;101003.19;;;10.52;100.00
24486;BME280;13449;49.374;8.584;2022-10-31T01:12:13;101004.53;;;10.48;100.00
24486;BME280;13449;49.374;8.584;2022-10-31T01:14:46;101010.00;;;10.48;100.00
24486;BME280;13449;49.374;8.584;2022-10-31T01:17:13;101004.91;;;10.45;100.00
24486;BME280;13449;49.374;8.584;2022-10-31T01:19:40;101015.97;;;10.43;100.00
24486;BME280;13449;49.374;8.584;2022-10-31T01:22:09;101011.53;;;10.42;100.00
24486;BME280;13449;49.374;8.584;2022-10-31T01:24:35;101014.44;;;10.41;100.00
24486;BME280;13449;49.374;8.584;2022-10-31T01:27:02;101011.56;;;10.34;100.00
24486;BME280;13449;49.374;8.584;2022-10-31T01:29:31;101011.22;;;10.37;100.00
24486;BME280;13449;49.374;8.584;2022-10-31T01:32:00;101017.16;;;10.33;100.00
24486;BME280;13449;49.374;8.584;2022-10-31T01:34:27;101011.06;;;10.31;100.00
24486;BME280;13449;49.374;8.584;2022-10-31T01:36:56;101015.47;;;10.32;100.00
24486;BME280;13449;49.374;8.584;2022-10-31T01:39:22;101017.00;;;10.26;100.00
24486;BME280;13449;49.374;8.584;2022-10-31T01:41:51;101012.56;;;10.25;100.00
24486;BME280;13449;49.374;8.584;2022-10-31T01:51:56;101005.09;;;10.19;100.00
24486;BME280;13449;49.374;8.584;2022-10-31T01:54:29;101004.75;;;10.22;100.00
24486;BME280;13449;49.374;8.584;2022-10-31T01:56:58;101003.88;;;10.22;100.00
24486;BME280;13449;49.374;8.584;2022-10-31T01:59:27;101003.03;;;10.29;100.00
24486;BME280;13449;49.374;8.584;2022-10-31T02:01:56;100995.38;;;10.33;100.00
24486;BME280;13449;49.374;8.584;2022-10-31T02:04:24;100997.22;;;10.32;100.00
24486;BME280;13449;49.374;8.584;2022-10-31T02:06:58;100994.19;;;10.27;100.00
24486;BME280;13449;49.374;8.584;2022-10-31T02:09:26;100999.97;;;10.32;100.00
24486;BME280;13449;49.374;8.584;2022-10-31T02:11:56;101005.59;;;10.31;100.00
24486;BME280;13449;49.374;8.584;2022-10-31T02:14:25;101007.97;;;10.26;100.00
24486;BME280;13449;49.374;8.584;2022-10-31T02:16:56;100999.09;;;10.24;100.00
24486;BME280;13449;49.374;8.584;2022-10-31T02:19:46;101005.75;;;10.21;100.00
24486;BME280;13449;49.374;8.584;2022-10-31T02:22:26;100993.16;;;10.20;100.00
24486;BME280;13449;49.374;8.584;2022-10-31T02:25:26;101000.16;;;10.14;100.00
24486;BME280;13449;49.374;8.584;2022-10-31T02:33:57;100993.47;;;10.09;100.00
24486;BME280;13449;49.374;8.584;2022-10-31T02:39:31;100984.97;;;10.04;100.00
24486;BME280;13449;49.374;8.584;2022-10-31T02:44:47;100980.19;;;9.98;100.00
24486;BME280;13449;49.374;8.584;2022-10-31T02:47:26;100977.63;;;9.96;100.00
24486;BME280;13449;49.374;8.584;2022-10-31T02:50:00;100982.75;;;9.99;100.00
24486;BME280;13449;49.374;8.584;2022-10-31T02:52:30;100987.84;;;9.94;100.00
24486;BME280;13449;49.374;8.584;2022-10-31T02:54:57;100980.19;;;9.98;100.00
24486;BME280;13449;49.374;8.584;2022-10-31T02:57:34;100973.72;;;9.91;100.00
24486;BME280;13449;49.374;8.584;2022-10-31T03:00:07;100981.88;;;9.91;100.00
24486;BME280;13449;49.374;8.584;2022-10-31T03:07:42;100978.13;;;9.84;100.00
24486;BME280;13449;49.374;8.584;2022-10-31T03:13:10;100978.13;;;9.84;100.00
24486;BME280;13449;49.374;8.584;2022-10-31T03:15:43;100982.56;;;9.85;100.00
24486;BME280;13449;49.374;8.584;2022-10-31T03:18:24;100987.31;;;9.91;100.00
24486;BME280;13449;49.374;8.584;2022-10-31T03:21:14;100986.97;;;9.94;100.00
24486;BME280;13449;49.374;8.584;2022-10-31T03:23:44;100987.69;;;9.96;100.00
24486;BME280;13449;49.374;8.584;2022-10-31T03:26:13;100985.97;;;9.95;100.00
24486;BME280;13449;49.374;8.584;2022-10-31T03:28:49;100986.31;;;9.92;100.00
24486;BME280;13449;49.374;8.584;2022-10-31T03:31:19;100984.59;;;9.91;100.00
24486;BME280;13449;49.374;8.584;2022-10-31T03:33:52;100992.25;;;9.87;100.00
24486;BME280;13449;49.374;8.584;2022-10-31T03:36:20;100985.63;;;9.90;100.00
24486;BME280;13449;49.374;8.584;2022-10-31T03:38:47;100982.75;;;9.91;100.00
24486;BME280;13449;49.374;8.584;2022-10-31T03:41:17;100981.03;;;9.90;100.00
24486;BME280;13449;49.374;8.584;2022-10-31T03:43:55;100979.16;;;9.83;100.00
24486;BME280;13449;49.374;8.584;2022-10-31T03:46:23;100980.00;;;9.83;100.00
24486;BME280;13449;49.374;8.584;2022-10-31T03:48:50;100980.19;;;9.82;100.00
24486;BME280;13449;49.374;8.584;2022-10-31T03:51:26;100982.41;;;9.78;100.00
24486;BME280;13449;49.374;8.584;2022-10-31T03:56:41;100971.66;;;9.77;100.00
24486;BME280;13449;49.374;8.584;2022-10-31T03:59:18;100974.75;;;9.82;100.00
24486;BME280;13449;49.374;8.584;2022-10-31T04:01:49;100979.00;;;9.84;100.00
24486;BME280;13449;49.374;8.584;2022-10-31T04:04:18;100977.97;;;9.77;100.00
24486;BME280;13449;49.374;8.584;2022-10-31T04:06:46;100975.22;;;9.69;100.00
24486;BME280;13449;49.374;8.584;2022-10-31T04:09:13;100972.84;;;9.66;100.00
24486;BME280;13449;49.374;8.584;2022-10-31T04:11:47;100968.75;;;9.62;100.00
24486;BME280;13449;49.374;8.584;2022-10-31T04:14:18;100966.88;;;9.54;100.00
24486;BME280;13449;49.374;8.584;2022-10-31T04:16:45;100971.97;;;9.57;100.00
24486;BME280;13449;49.374;8.584;2022-10-31T04:19:12;100971.31;;;9.55;100.00
24486;BME280;13449;49.374;8.584;2022-10-31T04:21:38;100973.81;;;9.49;100.00
24486;BME280;13449;49.374;8.584;2022-10-31T04:24:12;100975.34;;;9.43;100.00
24486;BME280;13449;49.374;8.584;2022-10-31T04:26:41;100975.00;;;9.46;100.00
24486;BME280;13449;49.374;8.584;2022-10-31T04:29:08;100973.31;;;9.45;100.00
24486;BME280;13449;49.374;8.584;2022-10-31T04:31:34;100965.66;;;9.41;100.00
24486;BME280;13449;49.374;8.584;2022-10-31T04:34:01;100967.00;;;9.37;100.00
24486;BME280;13449;49.374;8.584;2022-10-31T04:36:27;100968.88;;;9.36;100.00
24486;BME280;13449;49.374;8.584;2022-10-31T04:38:54;100973.47;;;9.36;100.00
24486;BME280;13449;49.374;8.584;2022-10-31T04:41:20;100968.38;;;9.33;100.00
24486;BME280;13449;49.374;8.584;2022-10-31T04:43:48;100971.56;;;9.28;100.00
24486;BME280;13449;49.374;8.584;2022-10-31T04:46:16;100966.13;;;9.28;100.00
24486;BME280;13449;49.374;8.584;2022-10-31T04:48:43;100967.47;;;9.24;100.00
24486;BME280;13449;49.374;8.584;2022-10-31T04:51:10;100966.81;;;9.22;100.00
24486;BME280;13449;49.374;8.584;2022-10-31T04:53:36;100973.25;;;9.21;100.00
24486;BME280;13449;49.374;8.584;2022-10-31T04:56:05;100975.28;;;9.19;100.00
24486;BME280;13449;49.374;8.584;2022-10-31T04:58:34;100980.03;;;9.17;100.00
24486;BME280;13449;49.374;8.584;2022-10-31T05:01:01;100977.47;;;9.15;100.00
24486;BME280;13449;49.374;8.584;2022-10-31T05:03:27;100985.13;;;9.12;100.00
24486;BME280;13449;49.374;8.584;2022-10-31T05:05:54;100982.72;;;9.09;100.00
24486;BME280;13449;49.374;8.584;2022-10-31T05:08:23;100990.75;;;9.10;100.00
24486;BME280;13449;49.374;8.584;2022-10-31T05:10:49;100982.34;;;9.04;100.00
24486;BME280;13449;49.374;8.584;2022-10-31T05:13:16;100997.00;;;9.03;100.00
24486;BME280;13449;49.374;8.584;2022-10-31T05:15:42;100989.31;;;8.98;100.00
24486;BME280;13449;49.374;8.584;2022-10-31T05:18:11;100977.91;;;8.95;100.00
24486;BME280;13449;49.374;8.584;2022-10-31T05:20:42;100984.69;;;8.91;100.00
24486;BME280;13449;49.374;8.584;2022-10-31T05:23:09;100985.69;;;8.90;100.00
24486;BME280;13449;49.374;8.584;2022-10-31T05:25:39;100978.88;;;8.86;100.00
24486;BME280;13449;49.374;8.584;2022-10-31T05:28:07;100967.66;;;8.89;100.00
24486;BME280;13449;49.374;8.584;2022-10-31T05:30:38;100964.75;;;8.82;100.00
24486;BME280;13449;49.374;8.584;2022-10-31T05:33:12;100963.91;;;8.82;100.00
24486;BME280;13449;49.374;8.584;2022-10-31T05:35:39;100959.00;;;8.85;100.00
24486;BME280;13449;49.374;8.584;2022-10-31T05:38:05;100963.91;;;8.82;100.00
24486;BME280;13449;49.374;8.584;2022-10-31T05:40:32;100962.94;;;8.91;100.00
24486;BME280;13449;49.374;8.584;2022-10-31T05:42:59;100968.03;;;8.94;100.00
24486;BME280;13449;49.374;8.584;2022-10-31T05:45:25;100972.00;;;9.07;100.00
24486;BME280;13449;49.374;8.584;2022-10-31T05:47:53;100980.97;;;8.92;100.00
24486;BME280;13449;49.374;8.584;2022-10-31T05:50:26;100970.09;;;8.92;100.00
24486;BME280;13449;49.374;8.584;2022-10-31T05:52:55;100966.66;;;8.90;100.00
24486;BME280;13449;49.374;8.584;2022-10-31T05:55:23;100962.28;;;8.97;100.00
24486;BME280;13449;49.374;8.584;2022-10-31T05:57:49;100966.34;;;8.93;100.00
24486;BME280;13449;49.374;8.584;2022-10-31T06:00:16;100954.13;;;8.97;100.00
24486;BME280;13449;49.374;8.584;2022-10-31T06:02:42;100966.84;;;8.88;100.00
24486;BME280;13449;49.374;8.584;2022-10-31T06:05:09;100970.72;;;8.86;100.00
24486;BME280;13449;49.374;8.584;2022-10-31T06:07:35;100970.06;;;8.84;100.00
24486;BME280;13449;49.374;8.584;2022-10-31T06:10:04;100976.66;;;8.81;100.00
24486;BME280;13449;49.374;8.584;2022-10-31T06:12:32;100976.81;;;8.80;100.00
24486;BME280;13449;49.374;8.584;2022-10-31T06:15:08;100972.56;;;8.77;100.00
24486;BME280;13449;49.374;8.584;2022-10-31T06:17:35;100978.16;;;8.76;100.00
24486;BME280;13449;49.374;8.584;2022-10-31T06:20:02;100980.72;;;8.77;100.00
24486;BME280;13449;49.374;8.584;2022-10-31T06:22:31;100982.78;;;8.83;100.00
24486;BME280;13449;49.374;8.584;2022-10-31T06:24:58;100980.56;;;8.79;100.00
24486;BME280;13449;49.374;8.584;2022-10-31T06:27:25;100971.91;;;8.83;100.00
24486;BME280;13449;49.374;8.584;2022-10-31T06:29:52;100969.72;;;8.87;100.00
24486;BME280;13449;49.374;8.584;2022-10-31T06:32:19;100975.00;;;8.88;100.00
24486;BME280;13449;49.374;8.584;2022-10-31T06:34:45;100976.22;;;8.94;100.00
24486;BME280;13449;49.374;8.584;2022-10-31T06:37:14;100969.56;;;8.96;100.00
24486;BME280;13449;49.374;8.584;2022-10-31T06:39:41;100971.66;;;9.02;100.00
24486;BME280;13449;49.374;8.584;2022-10-31T06:42:09;100969.22;;;9.33;100.00
24486;BME280;13449;49.374;8.584;2022-10-31T06:44:36;100956.66;;;9.56;100.00
24486;BME280;13449;49.374;8.584;2022-10-31T06:47:03;100973.00;;;9.48;100.00
24486;BME280;13449;49.374;8.584;2022-10-31T06:49:29;100967.91;;;9.61;100.00
24486;BME280;13449;49.374;8.584;2022-10-31T06:51:55;100972.19;;;9.96;100.00
24486;BME280;13449;49.374;8.584;2022-10-31T06:54:22;100966.56;;;9.82;100.00
24486;BME280;13449;49.374;8.584;2022-10-31T06:56:48;100963.16;;;9.88;100.00
24486;BME280;13449;49.374;8.584;2022-10-31T06:59:15;100963.16;;;10.04;100.00
24486;BME280;13449;49.374;8.584;2022-10-31T07:01:44;100974.41;;;10.41;100.00
24486;BME280;13449;49.374;8.584;2022-10-31T07:04:11;100978.66;;;10.36;100.00
24486;BME280;13449;49.374;8.584;2022-10-31T07:06:38;100981.53;;;10.42;100.00
24486;BME280;13449;49.374;8.584;2022-10-31T07:09:07;100970.13;;;10.47;100.00
24486;BME280;13449;49.374;8.584;2022-10-31T07:11:39;100970.09;;;10.63;100.00
24486;BME280;13449;49.374;8.584;2022-10-31T07:14:06;100958.66;;;10.68;100.00
24486;BME280;13449;49.374;8.584;2022-10-31T07:16:32;100961.88;;;10.71;100.00
24486;BME280;13449;49.374;8.584;2022-10-31T07:18:59;100961.19;;;10.77;100.00
24486;BME280;13449;49.374;8.584;2022-10-31T07:21:25;100962.66;;;10.88;100.00
24486;BME280;13449;49.374;8.584;2022-10-31T07:23:52;100971.19;;;10.93;100.00
24486;BME280;13449;49.374;8.584;2022-10-31T07:26:18;100965.38;;;10.96;100.00
24486;BME280;13449;49.374;8.584;2022-10-31T07:28:46;100961.59;;;11.05;100.00
24486;BME280;13449;49.374;8.584;2022-10-31T07:31:13;100963.59;;;11.11;100.00
24486;BME280;13449;49.374;8.584;2022-10-31T07:33:39;100965.06;;;11.22;100.00
24486;BME280;13449;49.374;8.584;2022-10-31T07:36:06;100966.91;;;11.29;100.00
24486;BME280;13449;49.374;8.584;2022-10-31T07:38:34;100968.25;;;11.33;100.00
24486;BME280;13449;49.374;8.584;2022-10-31T07:41:01;100974.69;;;11.40;100.00
24486;BME280;13449;49.374;8.584;2022-10-31T07:43:30;100956.63;;;11.39;100.00
24486;BME280;13449;49.374;8.584;2022-10-31T07:45:56;100963.63;;;11.42;100.00
24486;BME280;13449;49.374;8.584;2022-10-31T07:48:23;100973.16;;;11.46;100.00
24486;BME280;13449;49.374;8.584;2022-10-31T07:50:49;100978.38;;;11.55;100.00
24486;BME280;13449;49.374;8.584;2022-10-31T07:53:16;100984.41;;;11.74;100.00
24486;BME280;13449;49.374;8.584;2022-10-31T07:55:45;100982.50;;;11.82;100.00
24486;BME280;13449;49.374;8.584;2022-10-31T07:58:16;100972.59;;;11.81;100.00
24486;BME280;13449;49.374;8.584;2022-10-31T08:00:44;100984.84;;;11.85;100.00
24486;BME280;13449;49.374;8.584;2022-10-31T08:03:17;100979.22;;;11.87;100.00
24486;BME280;13449;49.374;8.584;2022-10-31T08:05:44;100974.72;;;11.94;100.00
24486;BME280;13449;49.374;8.584;2022-10-31T08:08:13;100969.72;;;11.97;100.00
24486;BME280;13449;49.374;8.584;2022-10-31T08:10:40;100966.84;;;11.99;100.00
24486;BME280;13449;49.374;8.584;2022-10-31T08:13:11;100967.09;;;12.04;100.00
24486;BME280;13449;49.374;8.584;2022-10-31T08:15:41;100968.06;;;12.11;100.00
24486;BME280;13449;49.374;8.584;2022-10-31T08:18:13;100964.78;;;12.16;100.00
24486;BME280;13449;49.374;8.584;2022-10-31T08:20:40;100965.19;;;12.27;100.00
24486;BME280;13449;49.374;8.584;2022-10-31T08:23:09;100968.50;;;12.37;100.00
24486;BME280;13449;49.374;8.584;2022-10-31T08:25:36;100958.72;;;12.43;100.00
24486;BME280;13449;49.374;8.584;2022-10-31T08:28:05;100960.34;;;12.52;100.00
24486;BME280;13449;49.374;8.584;2022-10-31T08:30:34;100949.13;;;12.62;100.00
24486;BME280;13449;49.374;8.584;2022-10-31T08:33:08;100961.00;;;12.69;100.00
24486;BME280;13449;49.374;8.584;2022-10-31T08:35:37;100960.94;;;12.77;100.00
24486;BME280;13449;49.374;8.584;2022-10-31T08:38:09;100959.81;;;12.86;100.00
24486;BME280;13449;49.374;8.584;2022-10-31T08:40:37;100949.88;;;12.99;100.00
24486;BME280;13449;49.374;8.584;2022-10-31T08:43:06;100951.97;;;13.12;100.00
24486;BME280;13449;49.374;8.584;2022-10-31T08:45:34;100948.19;;;13.13;100.00
24486;BME280;13449;49.374;8.584;2022-10-31T08:48:04;100948.94;;;13.22;100.00
24486;BME280;13449;49.374;8.584;2022-10-31T08:50:33;100954.75;;;13.33;100.00
24486;BME280;13449;49.374;8.584;2022-10-31T08:53:06;100958.25;;;13.42;100.00
24486;BME280;13449;49.374;8.584;2022-10-31T08:55:34;100948.00;;;13.50;100.00
24486;BME280;13449;49.374;8.584;2022-10-31T08:58:03;100949.13;;;13.56;100.00
24486;BME280;13449;49.374;8.584;2022-10-31T09:00:30;100949.06;;;13.71;100.00
24486;BME280;13449;49.374;8.584;2022-10-31T09:02:57;100948.16;;;13.85;100.00
24486;BME280;13449;49.374;8.584;2022-10-31T09:05:25;100938.69;;;13.87;100.00
24486;BME280;13449;49.374;8.584;2022-10-31T09:07:55;100941.09;;;13.97;100.00
24486;BME280;13449;49.374;8.584;2022-10-31T09:10:24;100943.91;;;14.03;100.00
24486;BME280;13449;49.374;8.584;2022-10-31T09:12:58;100939.91;;;14.06;100.00
24486;BME280;13449;49.374;8.584;2022-10-31T09:15:26;100938.72;;;14.15;100.00
24486;BME280;13449;49.374;8.584;2022-10-31T09:17:53;100935.41;;;14.20;100.00
24486;BME280;13449;49.374;8.584;2022-10-31T09:20:25;100939.22;;;14.25;100.00
24486;BME280;13449;49.374;8.584;2022-10-31T09:23:00;100935.72;;;14.31;100.00
24486;BME280;13449;49.374;8.584;2022-10-31T09:25:27;100948.03;;;14.35;100.00
24486;BME280;13449;49.374;8.584;2022-10-31T09:27:58;100943.22;;;14.44;100.00
24486;BME280;13449;49.374;8.584;2022-10-31T09:30:26;100945.16;;;14.50;100.00
24486;BME280;13449;49.374;8.584;2022-10-31T09:32:58;100943.75;;;14.61;100.00
24486;BME280;13449;49.374;8.584;2022-10-31T09:35:25;100939.16;;;14.68;100.00
24486;BME280;13449;49.374;8.584;2022-10-31T09:38:06;100940.06;;;14.81;100.00
24486;BME280;13449;49.374;8.584;2022-10-31T09:40:44;100942.66;;;14.89;100.00
24486;BME280;13449;49.374;8.584;2022-10-31T09:45:56;100931.94;;;14.94;100.00
24486;BME280;13449;49.374;8.584;2022-10-31T09:51:10;100941.47;;;15.05;100.00
24486;BME280;13449;49.374;8.584;2022-10-31T09:56:25;100933.31;;;15.18;100.00
24486;BME280;13449;49.374;8.584;2022-10-31T09:58:55;100931.22;;;15.27;100.00
24486;BME280;13449;49.374;8.584;2022-10-31T10:01:58;100925.78;;;15.40;100.00
24486;BME280;13449;49.374;8.584;2022-10-31T10:07:22;100922.47;;;15.58;100.00
24486;BME280;13449;49.374;8.584;2022-10-31T10:09:51;100920.50;;;15.45;100.00
24486;BME280;13449;49.374;8.584;2022-10-31T10:12:46;100917.97;;;15.43;99.33
24486;BME280;13449;49.374;8.584;2022-10-31T10:15:32;100914.78;;;15.46;99.37
24486;BME280;13449;49.374;8.584;2022-10-31T10:26:37;100903.69;;;15.74;100.00
24486;BME280;13449;49.374;8.584;2022-10-31T10:29:26;100894.38;;;15.82;100.00
24486;BME280;13449;49.374;8.584;2022-10-31T10:31:55;100891.63;;;15.88;97.36
24486;BME280;13449;49.374;8.584;2022-10-31T10:34:29;100895.88;;;15.91;99.06
24486;BME280;13449;49.374;8.584;2022-10-31T10:37:02;100899.66;;;15.90;98.58
24486;BME280;13449;49.374;8.584;2022-10-31T10:39:38;100892.06;;;15.85;98.66
24486;BME280;13449;49.374;8.584;2022-10-31T10:42:11;100890.34;;;15.91;100.00
24486;BME280;13449;49.374;8.584;2022-10-31T10:44:57;100888.88;;;15.88;100.00
24486;BME280;13449;49.374;8.584;2022-10-31T10:47:44;100884.25;;;15.89;99.13
24486;BME280;13449;49.374;8.584;2022-10-31T10:50:19;100880.00;;;15.93;97.84
24486;BME280;13449;49.374;8.584;2022-10-31T10:55:47;100866.47;;;16.11;99.78
24486;BME280;13449;49.374;8.584;2022-10-31T10:58:17;100862.84;;;16.11;97.62
24486;BME280;13449;49.374;8.584;2022-10-31T11:00:45;100866.00;;;16.21;96.82
24486;BME280;13449;49.374;8.584;2022-10-31T11:03:17;100859.66;;;16.20;94.41
24486;BME280;13449;49.374;8.584;2022-10-31T11:08:33;100850.13;;;16.36;93.71
24486;BME280;13449;49.374;8.584;2022-10-31T11:13:34;100836.31;;;16.56;92.00
24486;BME280;13449;49.374;8.584;2022-10-31T11:16:08;100834.63;;;16.61;91.82
24486;BME280;13449;49.374;8.584;2022-10-31T11:18:45;100831.63;;;16.69;91.65
24486;BME280;13449;49.374;8.584;2022-10-31T11:21:25;100829.88;;;16.81;91.87
24486;BME280;13449;49.374;8.584;2022-10-31T11:26:38;100822.22;;;16.90;87.51
24486;BME280;13449;49.374;8.584;2022-10-31T11:29:12;100823.84;;;17.04;89.15
24486;BME280;13449;49.374;8.584;2022-10-31T11:31:40;100818.28;;;17.11;87.11
24486;BME280;13449;49.374;8.584;2022-10-31T11:34:19;100809.97;;;17.17;89.11
24486;BME280;13449;49.374;8.584;2022-10-31T11:36:48;100811.38;;;17.33;89.34
24486;BME280;13449;49.374;8.584;2022-10-31T11:39:21;100808.84;;;17.31;85.95
24486;BME280;13449;49.374;8.584;2022-10-31T11:41:50;100802.22;;;17.39;87.31
24486;BME280;13449;49.374;8.584;2022-10-31T11:44:20;100802.00;;;17.40;86.65
24486;BME280;13449;49.374;8.584;2022-10-31T11:46:52;100808.28;;;17.48;86.50
24486;BME280;13449;49.374;8.584;2022-10-31T11:49:25;100796.84;;;17.51;85.55
24486;BME280;13449;49.374;8.584;2022-10-31T11:51:57;100789.16;;;17.59;86.42
24486;BME280;13449;49.374;8.584;2022-10-31T11:54:32;100779.31;;;17.70;86.98
24486;BME280;13449;49.374;8.584;2022-10-31T11:57:00;100777.38;;;17.70;85.57
24486;BME280;13449;49.374;8.584;2022-10-31T11:59:30;100767.47;;;17.63;84.20
24486;BME280;13449;49.374;8.584;2022-10-31T12:02:01;100770.88;;;17.65;83.56
24486;BME280;13449;49.374;8.584;2022-10-31T12:04:30;100766.75;;;17.74;84.80
24486;BME280;13449;49.374;8.584;2022-10-31T12:06:58;100770.41;;;17.68;84.21
24486;BME280;13449;49.374;8.584;2022-10-31T12:09:27;100770.75;;;17.78;82.40
24486;BME280;13449;49.374;8.584;2022-10-31T12:15:01;100765.22;;;17.78;83.94
24486;BME280;13449;49.374;8.584;2022-10-31T12:20:26;100760.75;;;17.83;85.19
24486;BME280;13449;49.374;8.584;2022-10-31T12:23:07;100759.50;;;17.79;85.22
24486;BME280;13449;49.374;8.584;2022-10-31T12:58:07;100701.94;;;17.83;83.74
24486;BME280;13449;49.374;8.584;2022-10-31T13:00:38;100690.84;;;17.90;85.37
24486;BME280;13449;49.374;8.584;2022-10-31T13:06:07;100694.53;;;18.02;86.33
24486;BME280;13449;49.374;8.584;2022-10-31T13:08:42;100677.97;;;18.02;86.43
24486;BME280;13449;49.374;8.584;2022-10-31T13:11:25;100665.72;;;17.98;85.82
24486;BME280;13449;49.374;8.584;2022-10-31T13:14:00;100647.84;;;18.00;86.67
24486;BME280;13449;49.374;8.584;2022-10-31T13:16:38;100634.91;;;17.82;87.85
24486;BME280;13449;49.374;8.584;2022-10-31T13:19:13;100636.34;;;17.85;87.06
24486;BME280;13449;49.374;8.584;2022-10-31T13:22:06;100634.44;;;17.85;88.14
24486;BME280;13449;49.374;8.584;2022-10-31T13:27:28;100635.56;;;17.78;88.44
24486;BME280;13449;49.374;8.584;2022-10-31T13:32:36;100638.78;;;17.57;88.42
24486;BME280;13449;49.374;8.584;2022-10-31T13:35:31;100637.06;;;17.56;91.73
24486;BME280;13449;49.374;8.584;2022-10-31T13:40:58;100629.69;;;17.74;88.01
24486;BME280;13449;49.374;8.584;2022-10-31T13:43:33;100639.72;;;17.87;86.73
24486;BME280;13449;49.374;8.584;2022-10-31T13:46:22;100643.72;;;18.09;87.04
24486;BME280;13449;49.374;8.584;2022-10-31T13:48:49;100653.97;;;18.20;86.41
24486;BME280;13449;49.374;8.584;2022-10-31T13:51:27;100651.59;;;18.24;85.29
24486;BME280;13449;49.374;8.584;2022-10-31T13:54:33;100648.50;;;18.32;85.85
24486;BME280;13449;49.374;8.584;2022-10-31T13:57:00;100644.75;;;18.26;86.70
24486;BME280;13449;49.374;8.584;2022-10-31T13:59:28;100657.69;;;18.26;84.95
24486;BME280;13449;49.374;8.584;2022-10-31T14:01:57;100645.91;;;18.19;86.33
24486;BME280;13449;49.374;8.584;2022-10-31T14:04:32;100645.63;;;18.09;85.67
24486;BME280;13449;49.374;8.584;2022-10-31T14:07:09;100650.00;;;17.98;85.58
24486;BME280;13449;49.374;8.584;2022-10-31T14:09:50;100650.47;;;17.95;86.27
24486;BME280;13449;49.374;8.584;2022-10-31T14:15:21;100640.50;;;17.76;86.57
24486;BME280;13449;49.374;8.584;2022-10-31T14:17:56;100639.72;;;17.69;87.67
24486;BME280;13449;49.374;8.584;2022-10-31T14:20:43;100645.78;;;17.53;89.38
24486;BME280;13449;49.374;8.584;2022-10-31T14:26:52;100637.50;;;17.34;90.32
24486;BME280;13449;49.374;8.584;2022-10-31T14:28:54;100631.47;;;17.19;91.95
24486;BME280;13449;49.374;8.584;2022-10-31T14:31:35;100615.44;;;17.10;91.14
24486;BME280;13449;49.374;8.584;2022-10-31T14:36:59;100619.06;;;16.85;92.87
24486;BME280;13449;49.374;8.584;2022-10-31T14:50:52;100604.69;;;16.46;94.75
24486;BME280;13449;49.374;8.584;2022-10-31T14:53:24;100604.09;;;16.37;96.08
24486;BME280;13449;49.374;8.584;2022-10-31T14:55:56;100600.75;;;16.28;97.71
24486;BME280;13449;49.374;8.584;2022-10-31T14:58:43;100597.81;;;16.23;98.18
24486;BME280;13449;49.374;8.584;2022-10-31T15:01:30;100617.91;;;16.24;98.99
24486;BME280;13449;49.374;8.584;2022-10-31T15:04:02;100628.50;;;16.27;100.00
24486;BME280;13449;49.374;8.584;2022-10-31T15:06:54;100621.31;;;16.26;100.00
24486;BME280;13449;49.374;8.584;2022-10-31T15:09:31;100605.41;;;16.28;100.00
24486;BME280;13449;49.374;8.584;2022-10-31T15:12:27;100620.22;;;16.33;100.00
24486;BME280;13449;49.374;8.584;2022-10-31T15:14:54;100603.69;;;16.33;100.00